Time;durP1;ratioP1;P1;durP2;ratioP2;P2;SDS_P1;SDS_P2;PMS_P1;PMS_P2;Temp;Humidity;BMP_temperature;BMP_pressure;BME280_temperature;BME280_humidity;BME280_pressure;Samples;Min_cycle;Max_cycle;Signal;HPM_P1;HPM_P2
2022/06/17 03:43:57;;;;;;;8.27;6.63;;;18.50;65.60;;;;;;4765316;30;20508;-81
2022/06/17 03:46:26;;;;;;;11.07;6.60;;;18.50;65.60;;;;;;4759806;30;20120;-82
2022/06/17 03:49:13;;;;;;;10.60;6.82;;;18.50;65.60;;;;;;4774613;30;20039;-82
2022/06/17 03:51:41;;;;;;;8.80;6.45;;;18.60;65.50;;;;;;4758804;30;20483;-83
2022/06/17 03:54:18;;;;;;;6.75;5.82;;;18.60;65.60;;;;;;4774812;30;20058;-79
2022/06/17 03:56:49;;;;;;;7.03;6.28;;;18.60;65.60;;;;;;4774019;30;20130;-80
2022/06/17 03:59:30;;;;;;;9.73;6.22;;;18.60;65.60;;;;;;4758612;30;20051;-80
2022/06/17 04:02:08;;;;;;;8.88;6.15;;;18.50;65.60;;;;;;4767088;30;20036;-85
2022/06/17 04:04:40;;;;;;;8.15;6.05;;;18.60;65.70;;;;;;4741034;30;20051;-82
2022/06/17 04:07:11;;;;;;;7.95;6.18;;;18.60;65.80;;;;;;4789757;30;20055;-82
2022/06/17 04:09:40;;;;;;;7.65;5.03;;;18.60;66.00;;;;;;4777093;30;20051;-82
2022/06/17 04:12:27;;;;;;;7.65;5.53;;;18.60;66.20;;;;;;4768817;30;20043;-81
2022/06/17 04:15:31;;;;;;;6.28;5.00;;;18.70;66.30;;;;;;4743956;30;20136;-83
2022/06/17 04:17:57;;;;;;;6.20;5.03;;;18.70;66.40;;;;;;4733904;30;20142;-83
2022/06/17 04:20:46;;;;;;;8.98;5.35;;;18.80;67.00;;;;;;4759153;30;20404;-84
2022/06/17 04:23:22;;;;;;;6.05;4.13;;;18.80;66.40;;;;;;4788488;30;20043;-84
2022/06/17 04:25:56;;;;;;;7.57;4.03;;;18.90;66.60;;;;;;4747353;30;20051;-81
2022/06/17 04:28:31;;;;;;;8.20;3.85;;;18.90;66.60;;;;;;4781108;29;20089;-82
2022/06/17 04:31:00;;;;;;;5.63;3.50;;;19.00;66.70;;;;;;4759853;30;20048;-81
2022/06/17 04:33:28;;;;;;;7.43;4.20;;;19.00;66.70;;;;;;4758405;30;20392;-79
2022/06/17 04:36:12;;;;;;;7.85;3.47;;;19.00;66.70;;;;;;4758271;30;20052;-80
2022/06/17 04:38:56;;;;;;;5.97;3.38;;;19.00;66.70;;;;;;4757830;30;20071;-79
2022/06/17 04:41:26;;;;;;;11.77;3.90;;;19.10;66.80;;;;;;4774602;30;20087;-81
2022/06/17 04:43:56;;;;;;;6.63;3.88;;;19.10;66.80;;;;;;4775787;30;20064;-79
2022/06/17 04:46:37;;;;;;;9.07;4.43;;;19.10;66.90;;;;;;4791674;30;20090;-82
2022/06/17 04:49:05;;;;;;;10.85;7.30;;;19.10;66.60;;;;;;4782755;30;20047;-78
2022/06/17 04:51:34;;;;;;;9.57;6.97;;;19.20;65.60;;;;;;4773728;30;20112;-82
2022/06/17 04:54:02;;;;;;;9.68;7.22;;;19.10;65.60;;;;;;4782324;30;20051;-80
2022/06/17 04:56:34;;;;;;;12.10;6.82;;;19.10;65.60;;;;;;4759586;30;20052;-82
2022/06/17 04:59:14;;;;;;;9.65;7.13;;;19.10;65.50;;;;;;4768856;30;20080;-83
2022/06/17 05:01:43;;;;;;;14.18;7.75;;;19.00;65.40;;;;;;4761179;30;20056;-78
2022/06/17 05:04:10;;;;;;;9.43;7.65;;;19.00;65.50;;;;;;4764914;30;20128;-80
2022/06/17 05:06:35;;;;;;;10.93;7.82;;;19.00;65.90;;;;;;4772947;30;20056;-80
2022/06/17 05:09:22;;;;;;;10.10;7.60;;;19.00;65.90;;;;;;4757641;30;20471;-78
2022/06/17 05:11:51;;;;;;;9.68;7.30;;;18.90;65.80;;;;;;4742981;30;20047;-82
2022/06/17 05:14:36;;;;;;;9.75;7.28;;;18.90;66.10;;;;;;4757433;30;20414;-78
2022/06/17 05:17:02;;;;;;;10.25;7.45;;;18.90;66.10;;;;;;4742990;30;20055;-79
2022/06/17 05:19:27;;;;;;;9.98;7.68;;;18.90;66.10;;;;;;4773447;30;20055;-78
2022/06/17 05:21:56;;;;;;;9.75;8.02;;;18.90;66.10;;;;;;4773206;30;20063;-80
2022/06/17 05:24:22;;;;;;;15.00;7.57;;;18.90;66.30;;;;;;4773769;30;20131;-82
2022/06/17 05:26:50;;;;;;;13.45;7.32;;;18.90;66.40;;;;;;4758102;30;20052;-79
2022/06/17 05:29:16;;;;;;;11.57;7.18;;;18.90;66.30;;;;;;4758042;30;20093;-80
2022/06/17 05:31:42;;;;;;;10.95;7.03;;;18.90;66.00;;;;;;4742604;30;20392;-79
2022/06/17 05:34:09;;;;;;;9.50;6.90;;;18.90;65.90;;;;;;4772412;30;20456;-78
2022/06/17 05:36:36;;;;;;;9.38;8.30;;;18.90;65.70;;;;;;4757337;30;20081;-80
2022/06/17 05:39:04;;;;;;;9.23;7.75;;;18.80;65.40;;;;;;4757422;30;20105;-77
2022/06/17 05:41:30;;;;;;;10.88;8.63;;;18.80;65.50;;;;;;4772043;30;20076;-79
2022/06/17 05:43:56;;;;;;;15.30;7.28;;;18.80;65.70;;;;;;4773197;30;20470;-79
2022/06/17 05:46:21;;;;;;;11.63;7.25;;;18.80;66.10;;;;;;4757271;30;20225;-76
2022/06/17 05:48:47;;;;;;;14.60;7.57;;;18.80;66.30;;;;;;4756891;30;20055;-80
2022/06/17 05:51:13;;;;;;;12.25;6.65;;;18.90;66.50;;;;;;4756824;30;20059;-79
2022/06/17 05:53:39;;;;;;;9.60;6.47;;;18.90;66.60;;;;;;4773237;30;20130;-78
2022/06/17 05:56:05;;;;;;;14.48;6.30;;;18.90;66.60;;;;;;4772770;30;20503;-81
2022/06/17 05:58:31;;;;;;;11.25;5.70;;;19.00;66.50;;;;;;4772531;30;20051;-78
2022/06/17 06:00:56;;;;;;;11.63;5.93;;;19.00;66.70;;;;;;4772893;30;20047;-77
2022/06/17 06:03:25;;;;;;;17.85;6.00;;;19.00;66.90;;;;;;4772615;30;20047;-76
2022/06/17 06:05:51;;;;;;;10.95;5.32;;;19.10;67.00;;;;;;4772781;30;20091;-77
2022/06/17 06:08:17;;;;;;;9.02;4.97;;;19.10;67.10;;;;;;4767699;30;20051;-78
2022/06/17 06:10:43;;;;;;;12.52;5.40;;;19.10;67.20;;;;;;4772510;30;20053;-79
2022/06/17 06:13:24;;;;;;;18.02;8.05;;;19.20;67.60;;;;;;4756936;30;20133;-81
2022/06/17 06:15:57;;;;;;;;;;;19.30;67.10;;;;;;4742615;30;20055;-78
2022/06/17 06:18:29;;;;;;;8.88;5.85;;;19.20;67.00;;;;;;4770132;30;19990;-78
2022/06/17 06:20:55;;;;;;;12.25;5.70;;;19.20;67.30;;;;;;4755303;30;20186;-77
2022/06/17 06:23:21;;;;;;;8.00;4.55;;;19.20;67.40;;;;;;4762344;30;20499;-69
2022/06/17 06:25:47;;;;;;;13.13;6.30;;;19.20;67.40;;;;;;4748796;30;20452;-80
2022/06/17 06:28:16;;;;;;;10.98;5.30;;;19.30;67.50;;;;;;4771821;30;20063;-78
2022/06/17 06:30:43;;;;;;;7.18;5.45;;;19.30;67.50;;;;;;4758114;30;20052;-77
2022/06/17 06:33:09;;;;;;;12.93;6.50;;;19.30;67.30;;;;;;4772395;30;20404;-80
2022/06/17 06:35:42;;;;;;;10.45;7.55;;;19.30;67.40;;;;;;4770886;30;20048;-81
2022/06/17 06:38:16;;;;;;;11.98;7.80;;;19.30;67.40;;;;;;4756270;30;20433;-77
2022/06/17 06:40:46;;;;;;;11.10;8.43;;;19.20;67.60;;;;;;4771934;30;20051;-83
2022/06/17 06:43:15;;;;;;;11.93;7.40;;;19.30;66.90;;;;;;4751038;30;20048;-78
2022/06/17 06:45:42;;;;;;;8.10;6.70;;;19.20;67.30;;;;;;4760080;30;20044;-77
2022/06/17 06:48:10;;;;;;;14.35;7.70;;;19.20;67.50;;;;;;4754065;30;20088;-77
2022/06/17 06:50:38;;;;;;;7.95;6.78;;;19.20;67.60;;;;;;4754149;30;20063;-76
2022/06/17 06:53:04;;;;;;;10.57;6.47;;;19.20;67.50;;;;;;4760316;30;20048;-76
2022/06/17 06:55:30;;;;;;;7.57;5.55;;;19.20;67.50;;;;;;4771988;30;20135;-78
2022/06/17 06:57:59;;;;;;;10.25;6.38;;;19.30;67.60;;;;;;4772063;30;20048;-77
2022/06/17 07:00:31;;;;;;;10.18;5.80;;;19.30;67.50;;;;;;4771593;30;20456;-78
2022/06/17 07:02:57;;;;;;;9.93;6.50;;;19.30;67.50;;;;;;4765906;30;20059;-79
2022/06/17 07:05:23;;;;;;;7.43;5.55;;;19.30;67.60;;;;;;4754254;30;20125;-79
2022/06/17 07:07:49;;;;;;;7.57;5.68;;;19.30;67.60;;;;;;4754710;30;20059;-77
2022/06/17 07:10:20;;;;;;;12.73;6.53;;;19.40;67.80;;;;;;4748729;30;20059;-79
2022/06/17 07:12:46;;;;;;;10.40;6.18;;;19.40;67.80;;;;;;4757377;30;20040;-80
2022/06/17 07:15:13;;;;;;;12.75;6.20;;;19.40;67.80;;;;;;4769775;30;20070;-80
2022/06/17 07:17:39;;;;;;;9.75;5.78;;;19.40;67.60;;;;;;4770756;30;20380;-81
2022/06/17 07:20:06;;;;;;;7.78;6.20;;;19.40;67.60;;;;;;4771691;30;20056;-78
2022/06/17 07:22:31;;;;;;;8.18;5.18;;;19.40;67.60;;;;;;4754761;30;20386;-79
2022/06/17 07:24:57;;;;;;;8.05;4.88;;;19.50;67.50;;;;;;4738166;30;20131;-79
2022/06/17 07:27:23;;;;;;;6.40;5.28;;;19.50;67.40;;;;;;4738040;30;20056;-80
2022/06/17 07:29:49;;;;;;;6.93;4.70;;;19.50;67.40;;;;;;4738485;30;20410;-80
2022/06/17 07:32:15;;;;;;;5.80;4.00;;;19.50;67.30;;;;;;4738864;30;20048;-78
2022/06/17 07:34:40;;;;;;;7.43;4.70;;;19.50;67.90;;;;;;4754893;30;20130;-78
2022/06/17 07:39:56;;;;;;;5.60;4.18;;;19.50;67.20;;;;;;4755547;30;20064;-78
2022/06/17 07:42:38;;;;;;;4.63;3.53;;;19.60;67.30;;;;;;4770559;30;20136;-77
2022/06/17 07:45:10;;;;;;;5.60;4.03;;;19.60;67.30;;;;;;4769039;30;20051;-79
2022/06/17 07:47:37;;;;;;;6.05;4.00;;;19.60;67.20;;;;;;4772286;30;20060;-79
2022/06/17 07:50:06;;;;;;;4.07;3.67;;;19.60;67.10;;;;;;4756136;30;20116;-79
2022/06/17 07:52:34;;;;;;;4.65;3.80;;;19.60;67.10;;;;;;4754940;30;20051;-81
2022/06/17 07:55:00;;;;;;;6.60;4.43;;;19.70;67.10;;;;;;4755052;30;20040;-83
2022/06/17 08:01:19;;;;;;;9.93;5.60;;;19.70;67.10;;;;;;4732844;30;20063;-83
2022/06/17 08:03:45;;;;;;;8.85;5.18;;;19.70;67.40;;;;;;4742937;30;20052;-82
2022/06/17 08:06:16;;;;;;;9.55;4.90;;;19.70;67.50;;;;;;4757537;30;20063;-79
2022/06/17 08:08:43;;;;;;;9.25;4.78;;;19.70;67.60;;;;;;4757630;30;20108;-79
2022/06/17 08:11:10;;;;;;;8.48;5.03;;;19.70;67.70;;;;;;4759710;30;20094;-79
2022/06/17 08:13:36;;;;;;;6.13;5.00;;;19.80;67.80;;;;;;4774444;30;20048;-76
2022/06/17 08:16:06;;;;;;;9.25;4.68;;;19.80;67.80;;;;;;4774158;30;20114;-78
2022/06/17 08:19:07;;;;;;;5.38;4.50;;;19.80;67.70;;;;;;4748955;30;20120;-83
2022/06/17 08:21:34;;;;;;;8.90;5.22;;;19.80;68.40;;;;;;4743951;30;20090;-78
2022/06/17 08:25:12;;;;;;;7.25;4.60;;;19.80;67.50;;;;;;4758897;30;20051;-83
2022/06/17 08:27:52;;;;;;;7.05;5.78;;;19.80;67.20;;;;;;4746113;30;20087;-81
2022/06/17 08:30:21;;;;;;;7.93;5.22;;;19.80;67.00;;;;;;4758138;30;20051;-81
2022/06/17 08:32:48;;;;;;;8.98;4.97;;;19.80;67.00;;;;;;4758961;30;20368;-79
2022/06/17 08:35:21;;;;;;;6.32;4.20;;;19.80;67.00;;;;;;4774051;30;20055;-78
2022/06/17 08:37:48;;;;;;;5.38;4.80;;;19.80;67.10;;;;;;4774114;30;20074;-80
2022/06/17 08:40:36;;;;;;;7.53;4.53;;;19.80;67.10;;;;;;4743147;30;20095;-77
2022/06/17 08:43:21;;;;;;;7.25;4.18;;;19.80;67.50;;;;;;4758229;30;20145;-79
2022/06/17 08:46:05;;;;;;;7.47;4.20;;;19.90;67.60;;;;;;4758339;30;20507;-78
2022/06/17 08:48:40;;;;;;;6.13;4.00;;;19.90;67.60;;;;;;4758241;30;20070;-80
2022/06/17 08:51:21;;;;;;;8.98;4.70;;;19.90;67.60;;;;;;4758105;30;20048;-80
2022/06/17 08:53:51;;;;;;;11.10;3.75;;;19.90;67.70;;;;;;4757910;30;20066;-78
2022/06/17 08:56:51;;;;;;;6.25;4.32;;;19.90;68.10;;;;;;4773647;30;20120;-79
2022/06/17 08:59:35;;;;;;;4.57;3.22;;;19.90;68.40;;;;;;4770326;30;20082;-82
2022/06/17 09:02:25;;;;;;;8.48;3.90;;;19.90;68.90;;;;;;4751866;30;20772;-81
2022/06/17 09:05:13;;;;;;;9.30;3.60;;;20.00;68.20;;;;;;4737815;30;20138;-82
2022/06/17 09:08:14;;;;;;;5.05;3.33;;;20.00;68.00;;;;;;4734370;30;20625;-83
2022/06/17 09:10:40;;;;;;;5.57;3.50;;;20.00;67.80;;;;;;4754886;30;20096;-81
2022/06/17 09:13:31;;;;;;;6.00;4.35;;;20.00;67.80;;;;;;4751825;30;20052;-82
2022/06/17 09:16:22;;;;;;;4.72;3.35;;;20.00;67.60;;;;;;4757317;30;20048;-80
2022/06/17 09:18:56;;;;;;;8.15;4.47;;;20.00;67.60;;;;;;4757166;30;20079;-81
2022/06/17 09:21:49;;;;;;;6.53;4.50;;;20.00;67.50;;;;;;4757281;30;20048;-82
2022/06/17 09:24:25;;;;;;;6.38;4.30;;;20.00;67.40;;;;;;4739865;30;20052;-82
2022/06/17 09:27:02;;;;;;;7.20;4.50;;;20.00;67.40;;;;;;4743238;30;20047;-82
2022/06/17 09:29:56;;;;;;;7.82;4.40;;;20.00;67.30;;;;;;4768918;30;20044;-81
2022/06/17 09:32:29;;;;;;;4.47;3.50;;;20.10;67.00;;;;;;4745538;30;20055;-81
2022/06/17 09:35:10;;;;;;;6.13;4.03;;;20.00;67.30;;;;;;4771987;30;20051;-82
2022/06/17 09:37:49;;;;;;;5.35;3.97;;;20.00;67.30;;;;;;4742270;30;20494;-82
2022/06/17 09:40:20;;;;;;;6.28;3.60;;;20.10;67.10;;;;;;4756908;30;20100;-81
2022/06/17 09:43:12;;;;;;;15.65;3.72;;;20.10;67.30;;;;;;4753768;30;20052;-82
2022/06/17 09:45:47;;;;;;;6.60;3.85;;;20.10;67.30;;;;;;4755030;30;20108;-85
2022/06/17 09:48:15;;;;;;;7.63;3.47;;;20.10;67.20;;;;;;4740273;30;20066;-82
2022/06/17 09:50:46;;;;;;;6.10;3.08;;;20.10;67.10;;;;;;4769193;30;20099;-83
2022/06/17 09:53:25;;;;;;;5.75;2.78;;;20.10;67.20;;;;;;4741755;30;20051;-82
2022/06/17 09:56:07;;;;;;;6.55;3.00;;;20.10;67.10;;;;;;4748453;30;20120;-81
2022/06/17 09:58:36;;;;;;;6.50;3.15;;;20.20;67.30;;;;;;4755990;30;20047;-83
2022/06/17 10:01:03;;;;;;;4.35;2.58;;;20.20;67.30;;;;;;4740952;30;20097;-82
2022/06/17 10:03:38;;;;;;;5.53;2.38;;;20.10;67.20;;;;;;4756466;30;20043;-81
2022/06/17 10:06:37;;;;;;;5.13;2.63;;;20.20;67.30;;;;;;4756108;30;20086;-82
2022/06/17 10:09:03;;;;;;;4.55;2.42;;;20.20;67.30;;;;;;4756575;30;20052;-82
2022/06/17 10:11:46;;;;;;;6.88;2.70;;;20.20;67.30;;;;;;4765163;30;20121;-79
2022/06/17 10:14:32;;;;;;;7.43;3.17;;;20.20;66.80;;;;;;4738082;30;20079;-83
2022/06/17 10:20:55;;;;;;;4.25;3.05;;;20.30;65.60;;;;;;4739074;30;20068;-80
2022/06/17 10:23:39;;;;;;;7.25;3.13;;;20.40;66.30;;;;;;4684836;30;20108;-83
2022/06/17 10:26:15;;;;;;;6.85;2.85;;;20.40;66.60;;;;;;4742560;30;20059;-78
2022/06/17 10:29:15;;;;;;;6.65;2.80;;;20.40;66.60;;;;;;4756277;30;20368;-80
2022/06/17 10:31:47;;;;;;;7.20;2.58;;;20.40;66.80;;;;;;4771388;30;20039;-79
2022/06/17 10:34:29;;;;;;;7.97;3.20;;;20.40;66.90;;;;;;4771201;30;20135;-82
2022/06/17 10:37:00;;;;;;;7.57;2.78;;;20.40;67.10;;;;;;4756120;30;20039;-81
2022/06/17 10:39:28;;;;;;;7.75;3.20;;;20.40;67.20;;;;;;4756330;30;20051;-81
2022/06/17 10:41:55;;;;;;;6.93;3.72;;;20.50;67.40;;;;;;4749969;30;20504;-77
2022/06/17 10:44:24;;;;;;;7.35;3.90;;;20.50;67.00;;;;;;4724629;30;20066;-77
2022/06/17 10:47:13;;;;;;;7.40;5.78;;;20.50;66.50;;;;;;4738689;30;20109;-80
2022/06/17 10:49:43;;;;;;;5.70;4.60;;;20.50;66.60;;;;;;4739262;30;20091;-78
2022/06/17 10:52:21;;;;;;;7.68;5.20;;;20.60;65.30;;;;;;4763996;30;20059;-79
2022/06/17 10:54:50;;;;;;;9.32;5.85;;;20.60;65.00;;;;;;4754232;30;20097;-80
2022/06/17 10:57:28;;;;;;;10.18;4.95;;;20.70;64.50;;;;;;4739450;30;20496;-82
2022/06/17 10:59:54;;;;;;;8.45;4.25;;;20.70;63.90;;;;;;4744027;30;20126;-83
2022/06/17 11:02:31;;;;;;;14.20;5.13;;;20.70;64.50;;;;;;4758828;30;20135;-78
2022/06/17 11:05:03;;;;;;;5.97;4.20;;;20.80;65.00;;;;;;4740467;30;20056;-80
2022/06/17 11:07:34;;;;;;;10.57;4.82;;;20.90;63.50;;;;;;4771876;30;20044;-77
2022/06/17 11:10:24;;;;;;;6.65;4.40;;;21.00;64.50;;;;;;4756481;30;20052;-78
2022/06/17 11:13:01;;;;;;;9.38;4.03;;;21.00;64.00;;;;;;4744309;30;20118;-78
2022/06/17 11:15:39;;;;;;;8.30;3.60;;;21.00;64.10;;;;;;4738338;30;20091;-78
2022/06/17 11:18:14;;;;;;;9.02;3.55;;;21.00;64.40;;;;;;4754602;30;20135;-78
2022/06/17 11:21:00;;;;;;;5.72;3.40;;;21.00;65.00;;;;;;4738516;30;20130;-80
2022/06/17 11:23:31;;;;;;;7.32;3.72;;;21.00;65.40;;;;;;4768067;30;20076;-78
2022/06/17 11:26:30;;;;;;;9.20;4.13;;;21.00;65.90;;;;;;4741162;30;20122;-83
2022/06/17 11:29:17;;;;;;;4.85;3.20;;;21.10;66.10;;;;;;4742419;30;20074;-83
2022/06/17 11:31:45;;;;;;;9.48;3.45;;;21.00;65.00;;;;;;4753101;30;20056;-82
2022/06/17 11:34:17;;;;;;;7.78;3.53;;;21.00;65.60;;;;;;4752997;30;20058;-75
2022/06/17 11:36:51;;;;;;;7.00;3.50;;;21.10;65.60;;;;;;4708361;30;20070;-79
2022/06/17 11:39:34;;;;;;;7.53;3.30;;;21.10;65.20;;;;;;4755579;30;20060;-82
2022/06/17 11:42:13;;;;;;;10.35;3.45;;;21.10;65.20;;;;;;4747010;30;20105;-82
2022/06/17 11:44:55;;;;;;;10.38;4.50;;;21.20;65.10;;;;;;4775036;30;20117;-81
2022/06/17 11:47:24;;;;;;;8.43;3.88;;;21.20;64.60;;;;;;4774855;30;20040;-80
2022/06/17 11:49:51;;;;;;;8.45;3.55;;;21.20;64.70;;;;;;4759465;30;20071;-78
2022/06/17 11:52:31;;;;;;;7.63;3.50;;;21.10;64.90;;;;;;4768083;30;20055;-77
2022/06/17 11:54:57;;;;;;;8.93;3.35;;;21.20;65.00;;;;;;4756916;30;20361;-79
2022/06/17 11:57:32;;;;;;;8.07;3.53;;;21.10;65.20;;;;;;4757029;30;20141;-77
2022/06/17 12:00:00;;;;;;;8.48;3.17;;;21.20;65.50;;;;;;4741266;30;20064;-77
2022/06/17 12:02:27;;;;;;;6.32;3.40;;;21.10;65.70;;;;;;4766147;30;20055;-79
2022/06/17 12:05:04;;;;;;;5.75;3.17;;;21.20;65.70;;;;;;4773743;30;20054;-78
2022/06/17 12:07:30;;;;;;;6.55;3.13;;;21.10;65.50;;;;;;4774859;30;20337;-77
2022/06/17 12:10:12;;;;;;;7.65;3.03;;;21.10;65.50;;;;;;4774856;30;20060;-80
2022/06/17 12:12:39;;;;;;;3.78;2.50;;;21.10;65.60;;;;;;4763789;30;20125;-78
2022/06/17 12:15:09;;;;;;;5.90;2.67;;;21.10;65.70;;;;;;4741593;30;20147;-78
2022/06/17 12:17:38;;;;;;;5.28;2.65;;;21.10;65.70;;;;;;4756372;30;20047;-80
2022/06/17 12:20:32;;;;;;;5.65;2.53;;;21.10;65.70;;;;;;4756666;30;20424;-78
2022/06/17 12:23:16;;;;;;;3.55;2.50;;;21.10;65.80;;;;;;4753392;30;20070;-78
2022/06/17 12:25:59;;;;;;;5.80;2.58;;;21.10;65.90;;;;;;4774250;30;20064;-79
2022/06/17 12:28:46;;;;;;;3.58;2.28;;;21.10;65.80;;;;;;4774682;30;20054;-78
2022/06/17 12:31:22;;;;;;;5.45;2.75;;;21.10;65.90;;;;;;4759015;30;20147;-82
2022/06/17 12:34:04;;;;;;;4.53;2.78;;;21.10;65.90;;;;;;4755942;30;20052;-81
2022/06/17 12:36:37;;;;;;;5.63;2.50;;;21.10;65.90;;;;;;4756703;30;20064;-78
2022/06/17 12:39:09;;;;;;;3.55;2.28;;;21.10;65.90;;;;;;4756159;30;20479;-77
2022/06/17 12:42:01;;;;;;;3.63;2.47;;;21.10;65.90;;;;;;4755827;30;20075;-79
2022/06/17 12:44:38;;;;;;;6.88;2.40;;;21.10;65.90;;;;;;4755695;30;20052;-80
2022/06/17 12:47:16;;;;;;;5.10;2.55;;;21.10;66.00;;;;;;4739824;30;20102;-78
2022/06/17 12:53:16;;;;;;;4.97;2.35;;;21.10;66.00;;;;;;4765539;30;20456;-78
2022/06/17 12:56:13;;;;;;;2.88;2.42;;;21.10;66.00;;;;;;4773740;30;20063;-81
2022/06/17 12:58:51;;;;;;;4.15;2.53;;;21.10;66.10;;;;;;4773847;30;20056;-78
2022/06/17 13:01:24;;;;;;;3.45;2.47;;;21.10;66.10;;;;;;4774010;30;20074;-79
2022/06/17 13:04:12;;;;;;;2.97;2.20;;;21.10;66.10;;;;;;4739769;30;20056;-78
2022/06/17 13:06:48;;;;;;;3.70;2.28;;;21.10;66.10;;;;;;4755865;30;20052;-79
2022/06/17 13:09:21;;;;;;;3.33;2.15;;;21.10;66.10;;;;;;4755815;30;20060;-79
2022/06/17 13:11:56;;;;;;;3.72;2.53;;;21.10;66.10;;;;;;4758265;30;20044;-80
2022/06/17 13:14:39;;;;;;;3.22;2.10;;;21.10;66.10;;;;;;4773550;30;20055;-79
2022/06/17 13:17:13;;;;;;;5.53;2.35;;;21.10;66.20;;;;;;4773660;30;20047;-78
2022/06/17 13:19:42;;;;;;;;;;;21.10;66.10;;;;;;4758013;30;20094;-79
2022/06/17 13:22:22;;;;;;;5.25;2.33;;;21.10;66.20;;;;;;4767520;30;19973;-81
2022/06/17 13:25:09;;;;;;;3.70;2.20;;;21.10;66.20;;;;;;4754918;30;20088;-78
2022/06/17 13:27:45;;;;;;;3.95;2.30;;;21.10;66.20;;;;;;4755315;30;20091;-78
2022/06/17 13:30:30;;;;;;;2.88;2.13;;;21.10;66.20;;;;;;4751806;30;20052;-82
2022/06/17 13:33:21;;;;;;;3.05;2.08;;;21.10;66.30;;;;;;4749152;30;20077;-79
2022/06/17 13:36:09;;;;;;;3.20;2.47;;;21.10;66.30;;;;;;4773050;30;20467;-80
2022/06/17 13:38:46;;;;;;;3.88;2.08;;;21.10;66.30;;;;;;4772262;30;20480;-78
2022/06/17 13:41:21;;;;;;;5.57;2.53;;;21.10;66.30;;;;;;4757833;30;20369;-79
2022/06/17 13:43:55;;;;;;;3.97;2.47;;;21.10;66.30;;;;;;4755613;30;20495;-81
2022/06/17 13:46:32;;;;;;;3.25;2.47;;;21.10;66.40;;;;;;4740010;30;20139;-80
2022/06/17 13:49:04;;;;;;;3.83;2.30;;;21.20;66.40;;;;;;4739761;30;20060;-79
2022/06/17 13:51:55;;;;;;;3.13;1.90;;;21.20;66.40;;;;;;4739224;30;20136;-79
2022/06/17 13:54:38;;;;;;;3.50;2.22;;;21.20;66.60;;;;;;4754054;30;20059;-78
2022/06/17 13:57:17;;;;;;;2.67;2.45;;;21.20;66.60;;;;;;4738547;30;20064;-78
2022/06/17 14:00:14;;;;;;;5.35;2.08;;;21.10;66.70;;;;;;4754217;30;20103;-82
2022/06/17 14:03:12;;;;;;;3.78;2.70;;;21.20;66.80;;;;;;4745714;30;20130;-80
2022/06/17 14:06:04;;;;;;;5.95;2.90;;;21.20;66.60;;;;;;4757172;30;20055;-79
2022/06/17 14:08:50;;;;;;;5.57;3.13;;;21.20;65.60;;;;;;4772567;30;20130;-79
2022/06/17 14:11:34;;;;;;;5.80;3.25;;;21.20;66.20;;;;;;4767685;30;20044;-80
2022/06/17 14:14:21;;;;;;;4.95;3.00;;;21.20;65.20;;;;;;4765446;30;20121;-81
2022/06/17 14:17:14;;;;;;;5.32;3.33;;;21.30;65.30;;;;;;4745201;30;20074;-76
2022/06/17 14:19:53;;;;;;;3.75;2.78;;;21.30;65.20;;;;;;4758799;30;20117;-81
2022/06/17 14:22:22;;;;;;;5.53;3.08;;;21.30;65.40;;;;;;4756164;30;20067;-79
2022/06/17 14:24:48;;;;;;;3.88;3.28;;;21.30;64.70;;;;;;4756869;30;20061;-79
2022/06/17 14:27:33;;;;;;;6.28;3.22;;;21.30;64.50;;;;;;4756516;30;20056;-78
2022/06/17 14:30:11;;;;;;;7.03;3.35;;;21.30;65.10;;;;;;4755479;30;20146;-75
2022/06/17 14:32:52;;;;;;;9.65;3.33;;;21.30;65.00;;;;;;4772098;30;20151;-74
2022/06/17 14:35:33;;;;;;;4.00;3.10;;;21.40;64.70;;;;;;4771547;30;20491;-75
2022/06/17 14:38:22;;;;;;;5.25;2.60;;;21.30;64.60;;;;;;4771593;30;20121;-76
2022/06/17 14:44:02;;;;;;;4.53;2.80;;;21.30;65.20;;;;;;4771856;30;20063;-75
2022/06/17 14:46:29;;;;;;;3.50;2.63;;;21.30;65.40;;;;;;4754501;30;20068;-76
2022/06/17 14:49:38;;;;;;;6.28;2.78;;;21.30;65.50;;;;;;4754694;30;20380;-76
2022/06/17 14:52:21;;;;;;;4.40;2.45;;;21.30;65.60;;;;;;4754627;30;20093;-76
2022/06/17 14:55:01;;;;;;;5.85;2.88;;;21.30;65.70;;;;;;4759413;30;20080;-77
2022/06/17 14:57:31;;;;;;;6.63;2.60;;;21.30;65.60;;;;;;4772032;30;20090;-76
2022/06/17 15:00:09;;;;;;;4.70;2.83;;;21.30;65.80;;;;;;4771764;30;20124;-76
2022/06/17 15:02:44;;;;;;;3.53;2.83;;;21.30;65.90;;;;;;4772340;30;20059;-76
2022/06/17 15:05:25;;;;;;;3.80;2.67;;;21.30;66.00;;;;;;4762931;30;20075;-79
2022/06/17 15:07:57;;;;;;;4.88;3.00;;;21.30;66.10;;;;;;4754319;30;20067;-80
2022/06/17 15:10:27;;;;;;;9.13;3.95;;;21.30;65.50;;;;;;4754183;30;20376;-81
2022/06/17 15:12:59;;;;;;;4.85;2.53;;;21.30;65.60;;;;;;4754097;30;20453;-78
2022/06/17 15:15:32;;;;;;;4.97;2.55;;;21.30;65.90;;;;;;4767583;30;20040;-77
2022/06/17 15:18:01;;;;;;;;;;;21.40;66.30;;;;;;4760476;30;20456;-78
2022/06/17 15:20:39;;;;;;;3.95;2.80;;;21.40;66.50;;;;;;4775516;30;19925;-77
2022/06/17 15:23:20;;;;;;;8.10;2.67;;;21.40;66.50;;;;;;4775519;30;20047;-79
2022/06/17 15:26:01;;;;;;;4.00;2.50;;;21.30;66.50;;;;;;4761559;30;20408;-78
2022/06/17 15:28:51;;;;;;;5.07;3.17;;;21.40;66.90;;;;;;4757322;30;20060;-78
2022/06/17 15:31:34;;;;;;;3.67;2.92;;;21.40;66.70;;;;;;4749920;30;20068;-79
2022/06/17 15:34:05;;;;;;;6.68;3.05;;;21.40;65.90;;;;;;4754806;30;20059;-71
2022/06/17 15:36:40;;;;;;;5.35;2.70;;;21.50;65.10;;;;;;4740764;30;20392;-82
2022/06/17 15:39:20;;;;;;;5.85;2.78;;;21.50;65.40;;;;;;4756723;30;20370;-82
2022/06/17 15:41:54;;;;;;;5.07;2.30;;;21.60;64.30;;;;;;4741972;30;20469;-81
2022/06/17 15:44:38;;;;;;;2.60;2.28;;;21.60;64.20;;;;;;4727634;30;20055;-75
2022/06/17 15:47:07;;;;;;;;;;;21.60;64.80;;;;;;4757593;30;20126;-77
2022/06/17 15:49:44;;;;;;;5.25;2.50;;;21.60;65.30;;;;;;4757228;30;19922;-78
2022/06/17 15:52:13;;;;;;;5.88;2.47;;;21.60;65.60;;;;;;4757226;30;20066;-77
2022/06/17 15:54:41;;;;;;;7.57;3.03;;;21.60;66.10;;;;;;4760502;30;20085;-77
2022/06/17 15:57:17;;;;;;;5.00;2.53;;;21.60;66.70;;;;;;4774495;30;20476;-77
2022/06/17 15:59:47;;;;;;;5.05;3.05;;;21.60;67.20;;;;;;4774644;30;20047;-77
2022/06/17 16:02:36;;;;;;;5.93;2.90;;;21.70;67.20;;;;;;4765326;30;20471;-80
2022/06/17 16:05:09;;;;;;;8.13;2.90;;;21.70;67.00;;;;;;4760453;30;20468;-77
2022/06/17 16:07:36;;;;;;;5.97;3.03;;;21.70;67.20;;;;;;4784812;30;20059;-77
2022/06/17 16:10:03;;;;;;;5.70;2.88;;;21.80;66.90;;;;;;4792590;30;20051;-78
2022/06/17 16:12:51;;;;;;;6.40;2.60;;;21.80;66.70;;;;;;4792443;30;20063;-78
2022/06/17 16:15:31;;;;;;;6.50;3.30;;;21.80;66.40;;;;;;4781906;30;20413;-78
2022/06/17 16:18:30;;;;;;;8.15;2.90;;;21.80;66.40;;;;;;4756395;30;20048;-78
2022/06/17 16:20:57;;;;;;;5.88;3.28;;;21.90;67.10;;;;;;4758913;30;20468;-77
2022/06/17 16:23:25;;;;;;;5.32;2.40;;;21.90;66.40;;;;;;4773064;30;20387;-79
2022/06/17 16:25:52;;;;;;;5.68;2.92;;;22.00;64.70;;;;;;4773290;30;20124;-78
2022/06/17 16:28:28;;;;;;;5.05;2.85;;;22.10;64.30;;;;;;4774298;30;20051;-77
2022/06/17 16:30:56;;;;;;;6.10;3.05;;;22.10;63.60;;;;;;4766696;30;20047;-77
2022/06/17 16:33:27;;;;;;;4.35;2.35;;;22.10;63.10;;;;;;4741028;30;20056;-78
2022/06/17 16:36:00;;;;;;;4.53;2.50;;;22.20;62.90;;;;;;4757157;30;20052;-77
2022/06/17 16:38:47;;;;;;;8.85;3.15;;;22.30;63.00;;;;;;4756376;30;20141;-78
2022/06/17 16:44:29;;;;;;;8.13;3.15;;;22.30;63.50;;;;;;4774881;30;20059;-78
2022/06/17 16:46:54;;;;;;;7.07;2.72;;;22.30;64.60;;;;;;4759279;30;20534;-82
2022/06/17 16:49:21;;;;;;;5.82;2.60;;;22.40;63.90;;;;;;4772577;30;20132;-73
2022/06/17 16:51:47;;;;;;;5.63;2.90;;;22.50;64.20;;;;;;4758583;30;20091;-77
2022/06/17 16:54:16;;;;;;;4.82;2.65;;;22.50;62.90;;;;;;4774057;30;20132;-77
2022/06/17 16:56:51;;;;;;;5.22;2.55;;;22.50;62.10;;;;;;4773473;30;20383;-77
2022/06/17 16:59:18;;;;;;;3.78;2.20;;;22.50;62.50;;;;;;4774347;30;20079;-77
2022/06/17 17:01:45;;;;;;;4.50;2.70;;;22.50;62.70;;;;;;4773716;30;20055;-76
2022/06/17 17:04:12;;;;;;;6.10;2.67;;;22.50;62.80;;;;;;4774488;30;20059;-76
2022/06/17 17:06:39;;;;;;;5.50;2.08;;;22.60;63.90;;;;;;4758115;30;20052;-77
2022/06/17 17:09:06;;;;;;;4.10;3.10;;;22.60;63.50;;;;;;4759002;30;20056;-77
2022/06/17 17:11:32;;;;;;;7.60;2.72;;;22.60;62.30;;;;;;4755756;30;20356;-77
2022/06/17 17:13:59;;;;;;;4.88;2.90;;;22.60;61.80;;;;;;4756133;30;20144;-77
2022/06/17 17:16:28;;;;;;;2.80;2.10;;;22.60;61.10;;;;;;4740474;30;20052;-77
2022/06/17 17:18:54;;;;;;;5.57;2.10;;;22.60;60.90;;;;;;4771846;30;20190;-77
2022/06/17 17:21:23;;;;;;;4.50;2.53;;;22.60;60.70;;;;;;4757698;30;20143;-76
2022/06/17 17:23:50;;;;;;;5.18;2.28;;;22.60;61.20;;;;;;4773007;30;20134;-77
2022/06/17 17:26:16;;;;;;;3.45;2.30;;;22.60;61.20;;;;;;4773232;30;20047;-76
2022/06/17 17:28:43;;;;;;;4.40;2.15;;;22.60;60.40;;;;;;4758406;30;20525;-77